Time;durP1;ratioP1;P1;durP2;ratioP2;P2;SDS_P1;SDS_P2;PMS_P1;PMS_P2;Temp;Humidity;BMP_temperature;BMP_pressure;BME280_temperature;BME280_humidity;BME280_pressure;Samples;Min_cycle;Max_cycle;Signal;HPM_P1;HPM_P2
2022/07/09 00:02:02;;;;;;;8.23;7.10;;;;;;;;;;5050635;28;20229;-19
2022/07/09 00:04:29;;;;;;;10.60;6.60;;;;;;;;;;5049526;28;20241;-19
2022/07/09 00:06:58;;;;;;;10.35;6.25;;;;;;;;;;5049451;28;20234;-19
2022/07/09 00:09:26;;;;;;;9.98;6.55;;;;;;;;;;5047520;28;20260;-19
2022/07/09 00:11:53;;;;;;;8.10;6.22;;;;;;;;;;5050504;28;20317;-19
2022/07/09 00:14:21;;;;;;;10.23;6.72;;;;;;;;;;5047897;28;20704;-19
2022/07/09 00:16:48;;;;;;;8.45;6.45;;;;;;;;;;5049470;28;20226;-19
2022/07/09 00:19:15;;;;;;;9.52;6.40;;;;;;;;;;5040102;28;20264;-19
2022/07/09 00:21:43;;;;;;;7.45;6.40;;;;;;;;;;5038067;28;21005;-19
2022/07/09 00:24:12;;;;;;;7.47;6.35;;;;;;;;;;5041424;28;20241;-19
2022/07/09 00:26:39;;;;;;;9.45;6.20;;;;;;;;;;5043270;28;20730;-19
2022/07/09 00:29:07;;;;;;;9.40;7.00;;;;;;;;;;5043928;28;20269;-19
2022/07/09 00:31:34;;;;;;;9.07;6.53;;;;;;;;;;5040491;28;20238;-19
2022/07/09 00:34:02;;;;;;;9.85;6.18;;;;;;;;;;5041794;28;20269;-19
2022/07/09 00:36:29;;;;;;;9.98;6.93;;;;;;;;;;5040944;28;20316;-19
2022/07/09 00:38:57;;;;;;;8.50;5.65;;;;;;;;;;5044166;28;20236;-19
2022/07/09 00:41:25;;;;;;;7.50;6.05;;;;;;;;;;5043210;28;20234;-19
2022/07/09 00:43:53;;;;;;;8.02;6.32;;;;;;;;;;5048370;28;20238;-19
2022/07/09 00:46:20;;;;;;;6.35;5.35;;;;;;;;;;5043747;28;20245;-19
2022/07/09 00:48:47;;;;;;;7.43;5.95;;;;;;;;;;5038156;28;20239;-19
2022/07/09 00:51:15;;;;;;;7.50;5.45;;;;;;;;;;5034446;28;20231;-19
2022/07/09 00:53:42;;;;;;;6.65;5.38;;;;;;;;;;5033493;28;20233;-19
2022/07/09 00:56:10;;;;;;;7.65;5.22;;;;;;;;;;5045783;28;20226;-19
2022/07/09 00:58:38;;;;;;;7.00;5.63;;;;;;;;;;5042679;28;20234;-19
2022/07/09 01:01:06;;;;;;;7.18;5.10;;;;;;;;;;5040979;28;20728;-19
2022/07/09 01:03:34;;;;;;;6.53;4.78;;;;;;;;;;5043869;28;20272;-19
2022/07/09 01:06:01;;;;;;;9.60;4.97;;;;;;;;;;5044209;28;20227;-19
2022/07/09 01:08:29;;;;;;;5.63;4.90;;;;;;;;;;5042963;28;20717;-19
2022/07/09 01:10:57;;;;;;;5.50;4.40;;;;;;;;;;5042119;28;20234;-19
2022/07/09 01:13:24;;;;;;;4.88;4.38;;;;;;;;;;5042899;28;20318;-19
2022/07/09 01:15:53;;;;;;;4.55;4.05;;;;;;;;;;5034091;28;20226;-19
2022/07/09 01:18:20;;;;;;;5.28;4.07;;;;;;;;;;5044318;28;20227;-19
2022/07/09 01:20:49;;;;;;;4.50;4.05;;;;;;;;;;5043807;28;20397;-19
2022/07/09 01:23:18;;;;;;;4.00;3.42;;;;;;;;;;5043944;28;20242;-19
2022/07/09 01:25:45;;;;;;;4.82;4.15;;;;;;;;;;5042154;28;20226;-19
2022/07/09 01:28:13;;;;;;;6.47;3.45;;;;;;;;;;5049627;28;20236;-19
2022/07/09 01:30:40;;;;;;;4.15;3.38;;;;;;;;;;5038145;28;20328;-19
2022/07/09 01:33:08;;;;;;;4.50;3.10;;;;;;;;;;5046466;28;20234;-19
2022/07/09 01:35:35;;;;;;;4.80;3.25;;;;;;;;;;5047651;28;20424;-19
2022/07/09 01:38:04;;;;;;;4.53;3.40;;;;;;;;;;5046052;28;20285;-19
2022/07/09 01:40:31;;;;;;;4.70;3.08;;;;;;;;;;5040899;28;20252;-19
2022/07/09 01:42:59;;;;;;;5.47;2.95;;;;;;;;;;5038380;28;20230;-19
2022/07/09 01:45:26;;;;;;;3.63;2.95;;;;;;;;;;5040179;28;20234;-19
2022/07/09 01:47:53;;;;;;;3.28;2.97;;;;;;;;;;5039902;28;20293;-19
2022/07/09 01:50:21;;;;;;;5.45;3.53;;;;;;;;;;5037637;28;20238;-19
2022/07/09 01:52:48;;;;;;;3.13;2.83;;;;;;;;;;5036630;28;21035;-19
2022/07/09 01:55:17;;;;;;;3.05;2.75;;;;;;;;;;5036398;28;20314;-19
2022/07/09 01:57:44;;;;;;;3.75;2.60;;;;;;;;;;5037293;28;20326;-19
2022/07/09 02:00:12;;;;;;;3.85;2.97;;;;;;;;;;5035996;28;20238;-19
2022/07/09 02:02:40;;;;;;;6.40;2.97;;;;;;;;;;5040630;28;20227;-19
2022/07/09 02:05:07;;;;;;;2.60;2.40;;;;;;;;;;5039794;28;20235;-19
2022/07/09 02:07:35;;;;;;;4.40;2.80;;;;;;;;;;5036637;28;20238;-19
2022/07/09 02:10:02;;;;;;;4.47;2.83;;;;;;;;;;5041163;28;20346;-19
2022/07/09 02:12:31;;;;;;;6.05;2.55;;;;;;;;;;5046741;28;20608;-19
2022/07/09 02:14:58;;;;;;;3.92;2.50;;;;;;;;;;5046623;28;20230;-19
2022/07/09 02:17:26;;;;;;;3.55;2.60;;;;;;;;;;5045848;28;20231;-19
2022/07/09 02:19:53;;;;;;;3.75;2.58;;;;;;;;;;5042595;28;20234;-19
2022/07/09 02:22:20;;;;;;;4.82;2.60;;;;;;;;;;5045038;28;20252;-19
2022/07/09 02:24:48;;;;;;;3.78;2.20;;;;;;;;;;5050017;28;20238;-19
2022/07/09 02:27:15;;;;;;;3.55;2.50;;;;;;;;;;5045962;28;20242;-19
2022/07/09 02:29:44;;;;;;;3.85;2.33;;;;;;;;;;5033211;28;20227;-20
2022/07/09 02:32:11;;;;;;;4.80;2.75;;;;;;;;;;5036308;28;20231;-20
2022/07/09 02:34:39;;;;;;;3.67;2.50;;;;;;;;;;5034638;28;20223;-19
2022/07/09 02:37:06;;;;;;;3.30;2.17;;;;;;;;;;5035599;28;20234;-19
2022/07/09 02:39:34;;;;;;;2.92;2.25;;;;;;;;;;5037035;28;20235;-19
2022/07/09 02:42:01;;;;;;;4.63;2.45;;;;;;;;;;5038372;28;20715;-19
2022/07/09 02:44:29;;;;;;;2.92;1.85;;;;;;;;;;5034877;28;20234;-19
2022/07/09 02:46:59;;;;;;;4.22;2.17;;;;;;;;;;5045835;28;20244;-19
2022/07/09 02:49:26;;;;;;;2.30;1.80;;;;;;;;;;5048506;28;20230;-19
2022/07/09 02:51:54;;;;;;;3.13;2.05;;;;;;;;;;5049900;28;20240;-19
2022/07/09 02:54:22;;;;;;;3.38;1.90;;;;;;;;;;5044510;28;20668;-19
2022/07/09 02:56:49;;;;;;;6.00;2.10;;;;;;;;;;5043997;28;20245;-19
2022/07/09 02:59:16;;;;;;;2.17;1.98;;;;;;;;;;5042665;28;20317;-19
2022/07/09 03:01:44;;;;;;;2.90;2.20;;;;;;;;;;5037092;28;20231;-19
2022/07/09 03:04:13;;;;;;;3.80;2.35;;;;;;;;;;5041662;28;20245;-19
2022/07/09 03:06:40;;;;;;;2.97;2.17;;;;;;;;;;5036093;28;20234;-19
2022/07/09 03:09:08;;;;;;;4.15;1.73;;;;;;;;;;5038077;28;20245;-19
2022/07/09 03:11:35;;;;;;;4.75;1.88;;;;;;;;;;5042131;28;20241;-19
2022/07/09 03:14:02;;;;;;;2.10;1.90;;;;;;;;;;5037016;28;20230;-19
2022/07/09 03:16:30;;;;;;;2.15;1.77;;;;;;;;;;5041919;28;20245;-19
2022/07/09 03:18:57;;;;;;;2.38;1.85;;;;;;;;;;5039470;28;20237;-19
2022/07/09 03:21:26;;;;;;;3.60;1.95;;;;;;;;;;5036628;28;20242;-19
2022/07/09 03:23:53;;;;;;;2.88;1.80;;;;;;;;;;5037945;28;20350;-19
2022/07/09 03:26:21;;;;;;;6.13;2.78;;;;;;;;;;5045378;28;20229;-19
2022/07/09 03:28:48;;;;;;;2.33;1.92;;;;;;;;;;5039960;28;20230;-20
2022/07/09 03:31:15;;;;;;;2.80;1.92;;;;;;;;;;5037793;28;20270;-21
2022/07/09 03:33:43;;;;;;;2.50;1.90;;;;;;;;;;5037992;28;20231;-20
2022/07/09 03:36:11;;;;;;;2.95;1.80;;;;;;;;;;5037356;28;20227;-20
2022/07/09 03:38:39;;;;;;;3.25;1.60;;;;;;;;;;5034415;28;20226;-20
2022/07/09 03:41:07;;;;;;;2.67;2.00;;;;;;;;;;5039490;28;20226;-20
2022/07/09 03:43:34;;;;;;;2.90;2.00;;;;;;;;;;5035747;28;20238;-19
2022/07/09 03:46:02;;;;;;;6.25;1.90;;;;;;;;;;5035705;28;20237;-20
2022/07/09 03:48:29;;;;;;;1.95;1.75;;;;;;;;;;5036094;28;20241;-20
2022/07/09 03:50:57;;;;;;;3.03;1.52;;;;;;;;;;5032437;28;20249;-19
2022/07/09 03:53:25;;;;;;;1.80;1.58;;;;;;;;;;5032760;28;20357;-19
2022/07/09 03:55:53;;;;;;;1.80;1.50;;;;;;;;;;5034157;28;20661;-20
2022/07/09 03:58:21;;;;;;;4.20;1.80;;;;;;;;;;5038624;28;20234;-20
2022/07/09 04:00:48;;;;;;;2.55;1.70;;;;;;;;;;5044266;28;20230;-20
2022/07/09 04:03:15;;;;;;;4.18;1.55;;;;;;;;;;5043130;28;20234;-20
2022/07/09 04:05:44;;;;;;;5.75;1.85;;;;;;;;;;5046040;28;20809;-19
2022/07/09 04:08:11;;;;;;;2.75;1.85;;;;;;;;;;5059575;28;20219;-20
2022/07/09 04:10:39;;;;;;;2.85;1.30;;;;;;;;;;5050588;28;20329;-20
2022/07/09 04:13:07;;;;;;;2.92;1.63;;;;;;;;;;5047137;28;20233;-20
2022/07/09 04:15:41;;;;;;;3.88;1.38;;;;;;;;;;5039335;28;21024;-20
2022/07/09 04:18:08;;;;;;;6.47;1.60;;;;;;;;;;5045719;28;20658;-20
2022/07/09 04:20:35;;;;;;;4.20;1.70;;;;;;;;;;5047394;28;20268;-20
2022/07/09 04:23:03;;;;;;;4.57;1.67;;;;;;;;;;5040999;28;20249;-20
2022/07/09 04:25:30;;;;;;;5.88;1.52;;;;;;;;;;5036761;28;20234;-20
2022/07/09 04:27:58;;;;;;;3.80;1.83;;;;;;;;;;5048488;28;20230;-19
2022/07/09 04:30:27;;;;;;;6.65;1.98;;;;;;;;;;5046822;28;20326;-20
2022/07/09 04:32:55;;;;;;;5.15;1.63;;;;;;;;;;5049136;28;20807;-19
2022/07/09 04:35:22;;;;;;;7.13;2.17;;;;;;;;;;5046390;28;20647;-19
2022/07/09 04:37:50;;;;;;;8.63;1.80;;;;;;;;;;5036942;28;21221;-20
2022/07/09 04:40:17;;;;;;;4.25;1.73;;;;;;;;;;5047026;28;20998;-19
2022/07/09 04:42:44;;;;;;;5.22;1.67;;;;;;;;;;5041478;28;20321;-20
2022/07/09 04:45:12;;;;;;;6.68;2.00;;;;;;;;;;5047310;28;20237;-20
2022/07/09 04:47:40;;;;;;;3.42;2.05;;;;;;;;;;5041719;28;20227;-20
2022/07/09 04:50:09;;;;;;;3.42;1.88;;;;;;;;;;5034860;28;20322;-20
2022/07/09 04:52:36;;;;;;;4.10;2.10;;;;;;;;;;5042959;28;20230;-20
2022/07/09 04:55:04;;;;;;;3.70;2.10;;;;;;;;;;5037378;28;20318;-20
2022/07/09 04:57:32;;;;;;;4.50;2.67;;;;;;;;;;5033313;28;20245;-19
2022/07/09 04:59:59;;;;;;;4.25;2.40;;;;;;;;;;5037132;28;20223;-20
2022/07/09 05:02:26;;;;;;;2.92;2.10;;;;;;;;;;5044090;28;20241;-20
2022/07/09 05:04:55;;;;;;;4.15;2.17;;;;;;;;;;5039105;28;20287;-19
2022/07/09 05:07:23;;;;;;;4.53;2.30;;;;;;;;;;5037453;28;20230;-19
2022/07/09 05:09:50;;;;;;;5.32;2.30;;;;;;;;;;5037874;28;20806;-19
2022/07/09 05:12:17;;;;;;;3.28;2.03;;;;;;;;;;5041621;28;20226;-20
2022/07/09 05:14:45;;;;;;;3.08;2.63;;;;;;;;;;5044450;28;20227;-20
2022/07/09 05:17:12;;;;;;;3.38;2.45;;;;;;;;;;5050340;28;20230;-19
2022/07/09 05:19:40;;;;;;;4.80;2.65;;;;;;;;;;5040467;28;20326;-19
2022/07/09 05:22:08;;;;;;;3.30;2.47;;;;;;;;;;5036905;28;20723;-20
2022/07/09 05:24:36;;;;;;;2.65;1.92;;;;;;;;;;5041209;28;20736;-20
2022/07/09 05:27:03;;;;;;;4.00;2.35;;;;;;;;;;5041157;28;20226;-20
2022/07/09 05:29:31;;;;;;;4.28;2.78;;;;;;;;;;5039067;28;21061;-20
2022/07/09 05:31:58;;;;;;;3.70;2.60;;;;;;;;;;5041073;28;20969;-20
2022/07/09 05:34:26;;;;;;;6.10;2.83;;;;;;;;;;5047501;28;20229;-20
2022/07/09 05:36:54;;;;;;;5.93;3.03;;;;;;;;;;5038732;28;20334;-20
2022/07/09 05:39:23;;;;;;;5.10;3.00;;;;;;;;;;5044143;28;20723;-20
2022/07/09 05:41:50;;;;;;;4.80;3.15;;;;;;;;;;5039161;28;20639;-19
2022/07/09 05:44:18;;;;;;;4.38;3.10;;;;;;;;;;5041318;28;20731;-20
2022/07/09 05:46:51;;;;;;;4.38;3.50;;;;;;;;;;5047235;28;20241;-19
2022/07/09 05:49:18;;;;;;;5.78;2.75;;;;;;;;;;5043431;28;20329;-19
2022/07/09 05:51:46;;;;;;;4.55;3.22;;;;;;;;;;5042465;28;20235;-19
2022/07/09 05:54:13;;;;;;;5.05;3.45;;;;;;;;;;5044276;28;20246;-20
2022/07/09 05:56:42;;;;;;;4.22;2.92;;;;;;;;;;5049310;28;20735;-20
2022/07/09 05:59:09;;;;;;;4.25;3.13;;;;;;;;;;5043139;28;20238;-20
2022/07/09 06:01:39;;;;;;;4.07;2.97;;;;;;;;;;5049653;28;20321;-20
2022/07/09 06:04:07;;;;;;;4.30;2.90;;;;;;;;;;5048643;28;20238;-20
2022/07/09 06:06:35;;;;;;;5.15;4.05;;;;;;;;;;5051277;28;20266;-19
2022/07/09 06:09:02;;;;;;;6.18;3.92;;;;;;;;;;5039063;28;20261;-20
2022/07/09 06:11:29;;;;;;;5.28;3.90;;;;;;;;;;5040946;28;20234;-20
2022/07/09 06:13:58;;;;;;;4.88;3.80;;;;;;;;;;5038198;28;20227;-20
2022/07/09 06:16:25;;;;;;;5.90;3.70;;;;;;;;;;5042785;28;20275;-19
2022/07/09 06:18:53;;;;;;;5.85;3.20;;;;;;;;;;5047947;28;20238;-20
2022/07/09 06:21:21;;;;;;;6.72;4.15;;;;;;;;;;5044057;28;20723;-20
2022/07/09 06:23:48;;;;;;;5.47;3.85;;;;;;;;;;5039744;28;20342;-20
2022/07/09 06:26:15;;;;;;;6.60;4.10;;;;;;;;;;5047987;28;20282;-20
2022/07/09 06:28:43;;;;;;;4.30;3.28;;;;;;;;;;5046289;28;20232;-20
2022/07/09 06:31:12;;;;;;;6.60;4.10;;;;;;;;;;5041849;28;20289;-20
2022/07/09 06:33:39;;;;;;;8.77;4.50;;;;;;;;;;5042773;28;20237;-20
2022/07/09 06:36:07;;;;;;;8.15;4.72;;;;;;;;;;5041876;28;20334;-20
2022/07/09 06:39:44;;;;;;;6.03;3.95;;;;;;;;;;5044815;28;20238;-20
2022/07/09 06:41:22;;;;;;;7.50;4.57;;;;;;;;;;5042751;28;20222;-20
2022/07/09 06:43:49;;;;;;;5.80;3.80;;;;;;;;;;5047942;28;20234;-20
2022/07/09 06:46:18;;;;;;;5.82;3.78;;;;;;;;;;5045925;28;20234;-19
2022/07/09 06:48:46;;;;;;;8.38;4.47;;;;;;;;;;5034414;28;21066;-20
2022/07/09 06:51:13;;;;;;;4.78;3.30;;;;;;;;;;5045239;28;20654;-20
2022/07/09 06:53:40;;;;;;;5.75;3.58;;;;;;;;;;5043148;28;20242;-20
2022/07/09 06:56:08;;;;;;;5.07;3.67;;;;;;;;;;5037363;28;20245;-19
2022/07/09 06:58:35;;;;;;;7.40;3.03;;;;;;;;;;5032500;28;20243;-20
2022/07/09 07:01:03;;;;;;;5.18;3.60;;;;;;;;;;5042050;28;20261;-20
2022/07/09 07:03:32;;;;;;;4.32;3.67;;;;;;;;;;5041581;28;20230;-20
2022/07/09 07:05:59;;;;;;;7.63;4.25;;;;;;;;;;5044336;28;20322;-20
2022/07/09 07:08:27;;;;;;;8.02;3.67;;;;;;;;;;5038726;28;20226;-20
2022/07/09 07:10:54;;;;;;;4.95;3.40;;;;;;;;;;5039375;28;20247;-20
2022/07/09 07:13:21;;;;;;;4.28;3.15;;;;;;;;;;5035496;28;20241;-19
2022/07/09 07:15:50;;;;;;;7.68;2.70;;;;;;;;;;5033800;28;20728;-20
2022/07/09 07:18:17;;;;;;;4.93;2.78;;;;;;;;;;5032759;28;20233;-20
2022/07/09 07:20:46;;;;;;;5.07;2.80;;;;;;;;;;5036100;28;20226;-20
2022/07/09 07:23:15;;;;;;;5.43;2.95;;;;;;;;;;5041792;28;20346;-20
2022/07/09 07:25:42;;;;;;;4.30;2.42;;;;;;;;;;5041088;28;20238;-20
2022/07/09 07:28:10;;;;;;;4.25;2.50;;;;;;;;;;5040339;28;20337;-20
2022/07/09 07:30:37;;;;;;;9.13;2.30;;;;;;;;;;5041455;28;20257;-20
2022/07/09 07:33:05;;;;;;;7.53;2.78;;;;;;;;;;5044118;28;21019;-19
2022/07/09 07:35:32;;;;;;;6.05;2.22;;;;;;;;;;5051756;28;20682;-19
2022/07/09 07:38:01;;;;;;;4.13;2.53;;;;;;;;;;5051116;28;20599;-19
2022/07/09 07:40:28;;;;;;;15.05;2.85;;;;;;;;;;5050460;28;20230;-20
2022/07/09 07:42:56;;;;;;;7.20;2.53;;;;;;;;;;5051246;28;20238;-19
2022/07/09 07:45:23;;;;;;;2.88;2.00;;;;;;;;;;5051221;28;20233;-20
2022/07/09 07:47:50;;;;;;;6.03;2.35;;;;;;;;;;5051234;28;20245;-19
2022/07/09 07:50:18;;;;;;;6.45;2.33;;;;;;;;;;5050489;28;20305;-19
2022/07/09 07:52:46;;;;;;;3.63;2.47;;;;;;;;;;5051317;28;20611;-19
2022/07/09 07:55:15;;;;;;;6.78;2.42;;;;;;;;;;5051199;28;20321;-19
2022/07/09 07:57:43;;;;;;;3.90;2.28;;;;;;;;;;5051774;28;20598;-20
2022/07/09 08:00:10;;;;;;;9.63;2.78;;;;;;;;;;5050211;28;20230;-20
2022/07/09 08:02:38;;;;;;;8.73;2.53;;;;;;;;;;5038933;28;20320;-19
2022/07/09 08:05:06;;;;;;;8.32;2.70;;;;;;;;;;5039375;28;20241;-20
2022/07/09 08:07:33;;;;;;;7.80;2.25;;;;;;;;;;5047837;28;20230;-20
2022/07/09 08:10:01;;;;;;;7.25;2.60;;;;;;;;;;5050918;28;20241;-19
2022/07/09 08:12:30;;;;;;;10.90;2.67;;;;;;;;;;5049558;28;20225;-20
2022/07/09 08:14:57;;;;;;;4.30;2.08;;;;;;;;;;5050661;28;20719;-19
2022/07/09 08:17:25;;;;;;;4.53;1.98;;;;;;;;;;5050434;28;20230;-20
2022/07/09 08:19:52;;;;;;;6.95;2.30;;;;;;;;;;5051142;28;20372;-19
2022/07/09 08:22:19;;;;;;;3.05;2.10;;;;;;;;;;5049141;28;20290;-20
2022/07/09 08:24:47;;;;;;;5.38;2.22;;;;;;;;;;5050707;28;20230;-19
2022/07/09 08:27:14;;;;;;;4.72;2.15;;;;;;;;;;5050653;28;20232;-20
2022/07/09 08:29:43;;;;;;;3.35;2.10;;;;;;;;;;5052907;28;20230;-20
2022/07/09 08:32:10;;;;;;;4.32;2.22;;;;;;;;;;5053624;28;20238;-19
2022/07/09 08:34:38;;;;;;;3.28;1.92;;;;;;;;;;5053283;28;20226;-20
2022/07/09 08:37:05;;;;;;;3.05;1.90;;;;;;;;;;5042203;28;20234;-19
2022/07/09 08:39:33;;;;;;;2.42;1.98;;;;;;;;;;5048591;28;20230;-19
2022/07/09 08:42:00;;;;;;;2.30;2.05;;;;;;;;;;5052005;28;20316;-19
2022/07/09 08:44:29;;;;;;;5.03;1.77;;;;;;;;;;5051910;28;20229;-20
2022/07/09 08:46:59;;;;;;;3.67;2.00;;;;;;;;;;5051524;28;20985;-19
2022/07/09 08:49:26;;;;;;;3.03;1.83;;;;;;;;;;5051122;28;20244;-19
2022/07/09 08:51:53;;;;;;;2.10;1.80;;;;;;;;;;5053845;28;20260;-19
2022/07/09 08:54:21;;;;;;;6.78;1.83;;;;;;;;;;5048584;28;20233;-19
2022/07/09 08:56:49;;;;;;;3.33;2.03;;;;;;;;;;5050591;28;20701;-18
2022/07/09 08:59:16;;;;;;;4.38;1.67;;;;;;;;;;5049351;28;20759;-21
2022/07/09 09:01:43;;;;;;;3.90;2.20;;;;;;;;;;5048032;28;20697;-21
2022/07/09 09:04:12;;;;;;;3.63;1.90;;;;;;;;;;5049730;28;21018;-21
2022/07/09 09:06:40;;;;;;;5.15;2.08;;;;;;;;;;5047511;28;20234;-20
2022/07/09 09:09:11;;;;;;;5.35;2.03;;;;;;;;;;5048641;28;21131;-21
2022/07/09 09:11:39;;;;;;;4.30;2.10;;;;;;;;;;5049890;28;20230;-21
2022/07/09 09:14:06;;;;;;;4.82;2.03;;;;;;;;;;5050676;28;20242;-21
2022/07/09 09:16:41;;;;;;;4.90;2.35;;;;;;;;;;5047694;28;20701;-20
2022/07/09 09:19:09;;;;;;;4.50;1.73;;;;;;;;;;5047927;28;21086;-21
2022/07/09 09:21:37;;;;;;;2.35;2.13;;;;;;;;;;5041306;28;20243;-21
2022/07/09 09:24:05;;;;;;;6.75;2.20;;;;;;;;;;5049968;28;20230;-20
2022/07/09 09:26:35;;;;;;;3.17;1.95;;;;;;;;;;5048634;28;20866;-21
2022/07/09 09:29:07;;;;;;;3.83;2.22;;;;;;;;;;5049605;28;20772;-20
2022/07/09 09:31:35;;;;;;;3.03;1.95;;;;;;;;;;5047466;28;20237;-20
2022/07/09 09:34:11;;;;;;;2.28;2.05;;;;;;;;;;5049502;28;20289;-20
2022/07/09 09:36:40;;;;;;;3.08;2.05;;;;;;;;;;5048000;28;20242;-19
2022/07/09 09:39:13;;;;;;;2.40;1.88;;;;;;;;;;5048147;28;21065;-20
2022/07/09 09:41:41;;;;;;;7.07;2.53;;;;;;;;;;5047188;28;20826;-20
2022/07/09 09:44:09;;;;;;;2.92;1.92;;;;;;;;;;5048818;28;20233;-21
2022/07/09 09:46:37;;;;;;;2.25;1.88;;;;;;;;;;5049178;28;20222;-20
2022/07/09 09:49:07;;;;;;;3.08;1.98;;;;;;;;;;5045196;28;20238;-20
2022/07/09 09:51:35;;;;;;;3.22;1.60;;;;;;;;;;5047364;28;20237;-21
2022/07/09 09:54:04;;;;;;;2.30;2.00;;;;;;;;;;5049452;28;20240;-20
2022/07/09 09:56:32;;;;;;;3.55;1.88;;;;;;;;;;5048806;28;20234;-20
2022/07/09 09:58:59;;;;;;;2.13;1.80;;;;;;;;;;5048250;28;20244;-20
2022/07/09 10:01:27;;;;;;;1.98;1.70;;;;;;;;;;5047897;28;20325;-20
2022/07/09 10:03:54;;;;;;;4.13;2.08;;;;;;;;;;5048302;28;20246;-20
2022/07/09 10:06:22;;;;;;;5.20;1.77;;;;;;;;;;5049176;28;20284;-20
2022/07/09 10:08:49;;;;;;;1.83;1.60;;;;;;;;;;5048584;28;20712;-20
2022/07/09 10:11:18;;;;;;;2.55;1.85;;;;;;;;;;5050042;28;20240;-20
2022/07/09 10:13:52;;;;;;;4.95;1.75;;;;;;;;;;5046709;28;20234;-20
2022/07/09 10:16:19;;;;;;;4.43;2.03;;;;;;;;;;5049671;28;20624;-20
2022/07/09 10:18:53;;;;;;;3.33;1.60;;;;;;;;;;5048936;28;20234;-21
2022/07/09 10:21:31;;;;;;;4.65;1.70;;;;;;;;;;5044235;28;20415;-20
2022/07/09 10:23:59;;;;;;;6.22;1.77;;;;;;;;;;5047247;28;21110;-20
2022/07/09 10:26:37;;;;;;;6.38;1.88;;;;;;;;;;5044727;28;20390;-20
2022/07/09 10:29:04;;;;;;;3.60;1.60;;;;;;;;;;5044720;28;20233;-21
2022/07/09 10:31:32;;;;;;;3.60;2.08;;;;;;;;;;5046579;28;20242;-21
2022/07/09 10:34:01;;;;;;;2.45;1.77;;;;;;;;;;5046205;28;20328;-20
2022/07/09 10:36:32;;;;;;;3.05;1.70;;;;;;;;;;5047769;28;22356;-20
2022/07/09 10:39:00;;;;;;;4.90;1.90;;;;;;;;;;5046732;28;20246;-21
2022/07/09 10:41:27;;;;;;;4.30;1.90;;;;;;;;;;5047166;28;20673;-21
2022/07/09 10:43:56;;;;;;;4.82;1.88;;;;;;;;;;5046385;28;21236;-19
2022/07/09 10:46:24;;;;;;;4.45;1.70;;;;;;;;;;5045788;28;20617;-20
2022/07/09 10:48:51;;;;;;;2.50;1.60;;;;;;;;;;5046844;28;20237;-21
2022/07/09 10:51:19;;;;;;;4.13;1.60;;;;;;;;;;5043524;28;20237;-19
2022/07/09 10:53:48;;;;;;;3.30;1.50;;;;;;;;;;5039195;28;20238;-21
2022/07/09 10:56:17;;;;;;;4.18;1.40;;;;;;;;;;5043161;28;20241;-21
2022/07/09 10:58:46;;;;;;;4.50;1.83;;;;;;;;;;5045836;28;20261;-19
2022/07/09 11:01:19;;;;;;;6.03;1.83;;;;;;;;;;5047375;28;20732;-21
2022/07/09 11:03:48;;;;;;;4.15;1.48;;;;;;;;;;5045226;28;20407;-21
2022/07/09 11:06:15;;;;;;;1.42;1.13;;;;;;;;;;5043956;28;20222;-20
2022/07/09 11:08:42;;;;;;;1.65;1.33;;;;;;;;;;5047543;28;20240;-21
2022/07/09 11:11:10;;;;;;;5.57;1.40;;;;;;;;;;5047647;28;20325;-21
2022/07/09 11:13:37;;;;;;;5.90;1.88;;;;;;;;;;5046844;28;20253;-20
2022/07/09 11:16:05;;;;;;;2.35;1.52;;;;;;;;;;5046814;28;20238;-20
2022/07/09 11:18:33;;;;;;;1.33;1.13;;;;;;;;;;5046277;28;20582;-20
2022/07/09 11:21:01;;;;;;;4.80;1.20;;;;;;;;;;5046973;28;20234;-21
2022/07/09 11:23:29;;;;;;;12.70;1.27;;;;;;;;;;5043449;28;20261;-20
2022/07/09 11:25:56;;;;;;;4.43;1.20;;;;;;;;;;5046276;28;20588;-20
2022/07/09 11:28:24;;;;;;;5.60;1.50;;;;;;;;;;5044649;28;20245;-20
2022/07/09 11:31:00;;;;;;;1.63;1.30;;;;;;;;;;5046506;28;20238;-20
2022/07/09 11:34:10;;;;;;;4.40;1.20;;;;;;;;;;5045797;28;20614;-20
2022/07/09 11:36:17;;;;;;;1.33;0.90;;;;;;;;;;5045402;28;20242;-20
2022/07/09 11:38:48;;;;;;;6.38;1.30;;;;;;;;;;5046741;28;20321;-21
2022/07/09 11:41:15;;;;;;;2.65;1.13;;;;;;;;;;5045196;28;20249;-20
2022/07/09 11:43:46;;;;;;;1.98;0.90;;;;;;;;;;5047900;28;20269;-20
2022/07/09 11:46:16;;;;;;;2.30;0.90;;;;;;;;;;5046129;28;20240;-20
2022/07/09 11:48:48;;;;;;;1.20;0.90;;;;;;;;;;5046268;28;21038;-20
2022/07/09 11:51:27;;;;;;;4.50;1.10;;;;;;;;;;5045125;28;20242;-20
2022/07/09 11:53:54;;;;;;;1.90;1.00;;;;;;;;;;5040587;28;20259;-20
2022/07/09 11:56:22;;;;;;;2.70;0.90;;;;;;;;;;5045761;28;20230;-21
2022/07/09 11:58:50;;;;;;;2.40;0.88;;;;;;;;;;5046710;28;21082;-21
2022/07/09 12:01:17;;;;;;;2.33;1.00;;;;;;;;;;5045546;28;20240;-20
2022/07/09 12:03:47;;;;;;;1.08;0.90;;;;;;;;;;5045026;28;20245;-20
2022/07/09 12:06:15;;;;;;;2.40;0.77;;;;;;;;;;5046865;28;20241;-20
2022/07/09 12:08:44;;;;;;;3.65;1.00;;;;;;;;;;5041680;28;20237;-20
2022/07/09 12:11:11;;;;;;;1.40;1.08;;;;;;;;;;5047087;28;20234;-20
2022/07/09 12:13:38;;;;;;;2.53;1.23;;;;;;;;;;5044040;28;20242;-20
2022/07/09 12:16:06;;;;;;;2.38;0.93;;;;;;;;;;5044010;28;20233;-20
2022/07/09 12:18:34;;;;;;;1.42;1.00;;;;;;;;;;5043850;28;20245;-20
2022/07/09 12:21:02;;;;;;;3.25;0.90;;;;;;;;;;5046400;28;20238;-20
2022/07/09 12:23:29;;;;;;;2.75;1.02;;;;;;;;;;5045459;28;20784;-20
2022/07/09 12:25:58;;;;;;;3.65;1.15;;;;;;;;;;5046156;28;20238;-20
2022/07/09 12:28:25;;;;;;;2.15;1.00;;;;;;;;;;5044860;28;21002;-20
2022/07/09 12:30:52;;;;;;;1.65;1.00;;;;;;;;;;5043696;28;20329;-20
2022/07/09 12:33:20;;;;;;;2.25;0.80;;;;;;;;;;5044715;28;20240;-21
2022/07/09 12:35:47;;;;;;;3.50;0.80;;;;;;;;;;5043959;28;20230;-21
2022/07/09 12:38:15;;;;;;;2.13;0.90;;;;;;;;;;5045605;28;20238;-20
2022/07/09 12:40:42;;;;;;;1.08;0.82;;;;;;;;;;5045684;28;20237;-20
2022/07/09 12:43:11;;;;;;;2.42;1.10;;;;;;;;;;5045594;28;21064;-20
2022/07/09 12:45:38;;;;;;;1.75;0.90;;;;;;;;;;5044887;28;20676;-20
2022/07/09 12:48:06;;;;;;;1.05;0.77;;;;;;;;;;5045718;28;20325;-20
2022/07/09 12:50:33;;;;;;;4.13;1.23;;;;;;;;;;5045824;28;20226;-20
2022/07/09 12:53:00;;;;;;;1.88;1.00;;;;;;;;;;5043900;28;20245;-20
2022/07/09 12:55:28;;;;;;;3.15;0.90;;;;;;;;;;5038456;28;20235;-20
2022/07/09 12:58:16;;;;;;;3.35;0.90;;;;;;;;;;5043522;28;21730;-20
2022/07/09 13:00:44;;;;;;;5.75;1.60;;;;;;;;;;5046810;28;21047;-20
2022/07/09 13:03:11;;;;;;;4.35;0.98;;;;;;;;;;5043283;28;20241;-20
2022/07/09 13:05:39;;;;;;;2.28;0.77;;;;;;;;;;5046278;28;20234;-20
2022/07/09 13:08:06;;;;;;;2.92;0.80;;;;;;;;;;5031200;28;20321;-20
2022/07/09 13:10:33;;;;;;;3.67;1.05;;;;;;;;;;5043771;28;20241;-20
2022/07/09 13:13:01;;;;;;;3.13;1.02;;;;;;;;;;5045913;28;20246;-20
2022/07/09 13:15:29;;;;;;;1.90;0.93;;;;;;;;;;5046178;28;20244;-20
2022/07/09 13:17:57;;;;;;;2.30;1.20;;;;;;;;;;5049858;28;20242;-20
2022/07/09 13:20:24;;;;;;;1.40;0.80;;;;;;;;;;5039662;28;20235;-20
2022/07/09 13:22:52;;;;;;;3.63;0.90;;;;;;;;;;5044890;28;20246;-21
2022/07/09 13:25:19;;;;;;;2.63;0.65;;;;;;;;;;5045033;28;20238;-21
2022/07/09 13:27:47;;;;;;;3.35;0.95;;;;;;;;;;5048474;28;20230;-20
2022/07/09 13:30:20;;;;;;;1.50;0.68;;;;;;;;;;5047701;28;20240;-20
2022/07/09 13:32:49;;;;;;;3.55;1.08;;;;;;;;;;5048211;28;20607;-20
2022/07/09 13:35:16;;;;;;;5.63;1.05;;;;;;;;;;5045297;28;20988;-20
2022/07/09 13:37:43;;;;;;;2.13;0.70;;;;;;;;;;5047241;28;20242;-20
2022/07/09 13:40:11;;;;;;;5.30;0.90;;;;;;;;;;5048336;28;20230;-20
2022/07/09 13:42:39;;;;;;;2.65;0.88;;;;;;;;;;5046769;28;20240;-20
2022/07/09 13:45:07;;;;;;;4.00;0.80;;;;;;;;;;5045939;28;20870;-20
2022/07/09 13:47:34;;;;;;;3.42;0.85;;;;;;;;;;5046142;28;20874;-20
2022/07/09 13:50:03;;;;;;;2.35;0.80;;;;;;;;;;5048838;28;20238;-20
2022/07/09 13:52:30;;;;;;;3.08;0.82;;;;;;;;;;5046020;28;20328;-20
2022/07/09 13:54:58;;;;;;;2.90;0.60;;;;;;;;;;5043546;28;20242;-20
2022/07/09 13:57:25;;;;;;;0.90;0.60;;;;;;;;;;5045891;28;20230;-20
2022/07/09 13:59:52;;;;;;;2.58;0.82;;;;;;;;;;5047735;28;20242;-20
2022/07/09 14:02:20;;;;;;;0.63;0.52;;;;;;;;;;5047327;28;20241;-20
2022/07/09 14:04:49;;;;;;;1.50;0.77;;;;;;;;;;5044624;28;20267;-20
2022/07/09 14:07:17;;;;;;;2.50;0.60;;;;;;;;;;5047649;28;20231;-20
2022/07/09 14:09:45;;;;;;;3.50;0.85;;;;;;;;;;5047086;28;20238;-20
2022/07/09 14:12:12;;;;;;;2.22;0.82;;;;;;;;;;5049567;28;20336;-20
2022/07/09 14:14:39;;;;;;;4.45;0.75;;;;;;;;;;5046797;28;20252;-20
2022/07/09 14:17:07;;;;;;;1.25;0.70;;;;;;;;;;5048235;28;20242;-20
2022/07/09 14:19:34;;;;;;;1.90;0.77;;;;;;;;;;5047153;28;21033;-19
2022/07/09 14:22:02;;;;;;;2.00;0.80;;;;;;;;;;5047168;28;20238;-20
2022/07/09 14:24:30;;;;;;;7.13;0.82;;;;;;;;;;5046612;28;20234;-20
2022/07/09 14:26:58;;;;;;;3.78;1.05;;;;;;;;;;5046666;28;20748;-20
2022/07/09 14:29:25;;;;;;;2.33;0.88;;;;;;;;;;5047476;28;20248;-20
2022/07/09 14:31:52;;;;;;;1.95;0.88;;;;;;;;;;5045331;28;20240;-20
2022/07/09 14:34:20;;;;;;;1.80;1.00;;;;;;;;;;5047184;28;20750;-20
2022/07/09 14:36:47;;;;;;;4.60;1.10;;;;;;;;;;5048069;28;21120;-20
2022/07/09 14:39:15;;;;;;;4.13;1.13;;;;;;;;;;5047752;28;20329;-20
2022/07/09 14:41:44;;;;;;;2.70;1.20;;;;;;;;;;5046579;28;21146;-20
2022/07/09 14:44:12;;;;;;;4.75;1.70;;;;;;;;;;5049097;28;20240;-20
2022/07/09 14:46:39;;;;;;;5.47;1.13;;;;;;;;;;5043658;28;20605;-20
2022/07/09 14:49:07;;;;;;;2.55;0.90;;;;;;;;;;5047836;28;20238;-20